Terminal Aerodrome Forecast
Issued by NWS

Home | Current Version | Previous Version | Text Only | Print | Product List | Glossary On
Versions: 1 2 3 4 5 6 7 8 9 10 11 12 13 14 15 16 17 18 19 20 21
000
FTAK31 PAJN 201700
TAFAWG
TAF
PAWG 201724Z 2018/2118 11006KT P6SM -SHRA FEW005 BKN030 OVC045
     FM210000 10007KT P6SM VCSH SCT020 BKN050
     FM210600 10005KT P6SM BKN060
     FM211200 10004KT P6SM FEW005 BKN070
     FM211500 10008KT P6SM -RA BKN030 OVC060
      AMD LTD TO CLD VIS AND WIND 2106/2115=

USA.gov is the U.S. government's official web portal to all federal, state and local government web resources and services.